createdAt,value
2023-04-22T00:00:15.551Z,5.23
2023-04-22T00:02:43.925Z,5.37
2023-04-22T00:05:15.071Z,4.63
2023-04-22T00:07:44.320Z,4.93
2023-04-22T00:10:11.985Z,6.83
2023-04-22T00:13:56.429Z,6.80
2023-04-22T00:16:24.007Z,6.13
2023-04-22T00:18:51.294Z,5.70
2023-04-22T00:21:18.465Z,5.37
2023-04-22T00:23:45.706Z,6.23
2023-04-22T00:26:12.948Z,5.90
2023-04-22T00:28:43.254Z,6.53
2023-04-22T00:31:10.455Z,6.10
2023-04-22T00:33:37.737Z,5.73
2023-04-22T00:36:05.442Z,6.13
2023-04-22T00:38:32.784Z,6.07
2023-04-22T00:41:03.066Z,5.90
2023-04-22T00:43:30.843Z,6.57
2023-04-22T00:46:00.980Z,6.30
2023-04-22T00:48:29.156Z,7.30
2023-04-22T00:54:56.618Z,6.70
2023-04-22T00:57:24.548Z,6.37
2023-04-22T00:59:52.098Z,7.00
2023-04-22T01:02:19.551Z,7.70
2023-04-22T01:04:47.753Z,7.63
2023-04-22T01:07:14.930Z,7.50
2023-04-22T01:09:42.689Z,8.27
2023-04-22T01:12:09.840Z,7.13
2023-04-22T01:14:37.359Z,7.50
2023-04-22T01:17:04.824Z,9.40
2023-04-22T01:19:33.224Z,8.17
2023-04-22T01:22:02.766Z,9.13
2023-04-22T01:24:30.157Z,8.33
2023-04-22T01:26:59.980Z,8.27
2023-04-22T01:29:27.520Z,8.30
2023-04-22T01:31:56.108Z,8.93
2023-04-22T01:34:23.657Z,9.60
2023-04-22T01:36:51.625Z,9.73
2023-04-22T01:39:19.062Z,9.50
2023-04-22T01:41:47.107Z,9.23
2023-04-22T01:44:15.361Z,9.47
2023-04-22T01:46:42.617Z,9.67
2023-04-22T01:49:09.753Z,10.40
2023-04-22T01:51:36.965Z,10.20
2023-04-22T01:54:04.519Z,9.53
2023-04-22T01:56:31.927Z,10.13
2023-04-22T01:58:59.011Z,9.00
2023-04-22T02:01:26.290Z,9.90
2023-04-22T02:03:53.676Z,11.20
2023-04-22T02:06:21.266Z,10.87
2023-04-22T02:08:48.535Z,9.57
2023-04-22T02:11:15.793Z,12.77
2023-04-22T02:13:42.972Z,12.40
2023-04-22T02:16:11.153Z,12.70
2023-04-22T02:18:38.488Z,12.00
2023-04-22T02:21:05.878Z,11.67
2023-04-22T02:23:33.340Z,10.93
2023-04-22T02:26:01.034Z,13.97
2023-04-22T02:28:28.329Z,13.27
2023-04-22T02:30:55.880Z,12.53
2023-04-22T02:33:25.457Z,12.90
2023-04-22T02:35:52.775Z,13.57
2023-04-22T02:38:20.277Z,14.47
2023-04-22T02:40:49.987Z,13.77
2023-04-22T02:43:17.254Z,13.77
2023-04-22T02:45:44.500Z,15.10
2023-04-22T02:48:14.476Z,14.97
2023-04-22T02:50:41.635Z,13.60
2023-04-22T02:53:09.421Z,16.17
2023-04-22T02:55:36.529Z,13.60
2023-04-22T02:58:03.723Z,13.07
2023-04-22T03:00:31.147Z,12.87
2023-04-22T03:02:58.550Z,14.73
2023-04-22T03:05:25.870Z,12.70
2023-04-22T03:07:53.711Z,15.83
2023-04-22T03:10:21.132Z,14.13
2023-04-22T03:12:49.189Z,14.80
2023-04-22T03:15:18.826Z,13.20
2023-04-22T03:17:47.843Z,14.80
2023-04-22T03:20:15.441Z,13.80
2023-04-22T03:22:42.891Z,14.60
2023-04-22T03:25:12.027Z,13.00
2023-04-22T03:27:39.254Z,12.80
2023-04-22T03:30:08.263Z,14.00
2023-04-22T03:32:35.898Z,13.83
2023-04-22T03:35:03.490Z,14.33
2023-04-22T03:37:30.780Z,15.63
2023-04-22T03:39:57.949Z,12.37
2023-04-22T03:42:25.071Z,13.30
2023-04-22T03:44:56.677Z,14.23
2023-04-22T03:47:24.000Z,13.83
2023-04-22T03:49:51.135Z,14.73
2023-04-22T03:52:18.422Z,14.20
2023-04-22T03:54:45.577Z,14.80
2023-04-22T03:57:12.821Z,14.67
2023-04-22T03:59:40.219Z,15.73
2023-04-22T04:02:08.869Z,15.57
2023-04-22T04:04:36.767Z,15.40
2023-04-22T04:07:04.475Z,16.47
2023-04-22T04:09:31.678Z,16.27
2023-04-22T04:11:58.955Z,16.60
2023-04-22T04:14:26.193Z,16.33
2023-04-22T04:16:53.426Z,15.90
2023-04-22T04:19:21.671Z,18.23
2023-04-22T04:21:48.953Z,17.47
2023-04-22T04:24:16.129Z,18.13
2023-04-22T04:26:43.392Z,17.67
2023-04-22T04:29:10.735Z,18.47
2023-04-22T04:31:37.867Z,16.83
2023-04-22T04:34:05.942Z,19.40
2023-04-22T04:36:33.510Z,18.47
2023-04-22T04:39:00.678Z,19.07
2023-04-22T04:41:28.539Z,17.27
2023-04-22T04:43:56.468Z,18.10
2023-04-22T04:46:23.836Z,16.60
2023-04-22T04:48:51.919Z,17.47
2023-04-22T04:51:20.431Z,18.00
2023-04-22T04:53:47.944Z,18.07
2023-04-22T04:56:15.506Z,17.47
2023-04-22T04:58:43.010Z,19.03
2023-04-22T05:01:10.469Z,17.63
2023-04-22T05:03:37.851Z,17.77
2023-04-22T05:06:05.621Z,17.67
2023-04-22T05:08:32.905Z,17.73
2023-04-22T05:11:00.155Z,16.90
2023-04-22T05:13:27.947Z,18.23
2023-04-22T05:15:55.558Z,18.43
2023-04-22T05:18:23.084Z,15.53
2023-04-22T05:20:50.544Z,16.40
2023-04-22T05:23:17.758Z,14.30
2023-04-22T05:25:45.289Z,14.70
2023-04-22T05:28:12.388Z,16.17
2023-04-22T05:30:39.675Z,17.40
2023-04-22T05:33:08.889Z,14.73
2023-04-22T05:35:36.504Z,14.27
2023-04-22T05:38:03.918Z,15.27
2023-04-22T05:40:31.324Z,13.70
2023-04-22T05:42:58.708Z,14.53
2023-04-22T05:45:25.883Z,14.73
2023-04-22T05:47:53.173Z,14.10
2023-04-22T05:50:21.315Z,14.10
2023-04-22T05:52:50.488Z,13.57
2023-04-22T05:55:17.869Z,13.47
2023-04-22T05:57:45.259Z,13.17
2023-04-22T06:00:13.324Z,11.87
2023-04-22T06:02:40.695Z,12.80
2023-04-22T06:05:09.075Z,13.60
2023-04-22T06:07:36.594Z,12.37
2023-04-22T06:10:05.454Z,12.03
2023-04-22T06:12:34.879Z,12.87
2023-04-22T06:15:02.400Z,13.23
2023-04-22T06:17:29.874Z,12.53
2023-04-22T06:19:57.622Z,11.73
2023-04-22T06:22:25.101Z,12.70
2023-04-22T06:24:52.338Z,12.10
2023-04-22T06:27:19.653Z,11.30
2023-04-22T06:29:46.859Z,10.90
2023-04-22T06:32:14.089Z,10.93
2023-04-22T06:34:41.395Z,11.20
2023-04-22T06:37:09.658Z,11.70
2023-04-22T06:39:37.414Z,10.50
2023-04-22T06:42:05.112Z,10.77
2023-04-22T06:44:32.828Z,11.37
2023-04-22T06:47:00.241Z,10.77
2023-04-22T06:49:27.616Z,11.30
2023-04-22T06:51:54.997Z,10.77
2023-04-22T06:54:22.152Z,10.77
2023-04-22T06:56:49.418Z,10.53
2023-04-22T06:59:16.847Z,9.47
2023-04-22T07:01:44.085Z,10.13
2023-04-22T07:04:11.504Z,9.60
2023-04-22T07:06:38.844Z,8.70
2023-04-22T07:09:06.108Z,8.87
2023-04-22T07:11:34.270Z,8.90
2023-04-22T07:14:01.626Z,9.63
2023-04-22T07:16:29.067Z,8.30
2023-04-22T07:18:56.287Z,8.17
2023-04-22T07:21:23.560Z,7.07
2023-04-22T07:23:52.028Z,7.50
2023-04-22T07:26:19.390Z,7.87
2023-04-22T07:28:46.865Z,7.80
2023-04-22T07:31:14.091Z,7.07
2023-04-22T07:33:41.449Z,6.83
2023-04-22T07:36:09.080Z,7.83
2023-04-22T07:38:36.645Z,6.90
2023-04-22T07:41:04.039Z,6.37
2023-04-22T07:43:31.364Z,6.47
2023-04-22T07:45:58.825Z,6.40
2023-04-22T07:48:26.340Z,6.00
2023-04-22T07:51:31.314Z,6.70
2023-04-22T07:53:58.589Z,6.63
2023-04-22T07:56:28.871Z,6.90
2023-04-22T07:58:56.199Z,6.50
2023-04-22T08:01:23.424Z,6.17
2023-04-22T08:03:51.058Z,6.47
2023-04-22T08:06:19.151Z,5.77
2023-04-22T08:08:46.772Z,6.23
2023-04-22T08:11:13.963Z,5.90
2023-04-22T08:13:41.365Z,5.50
2023-04-22T08:16:08.705Z,6.00
2023-04-22T08:18:36.391Z,5.60
2023-04-22T08:21:03.862Z,5.23
2023-04-22T08:23:31.017Z,6.03
2023-04-22T08:25:58.425Z,5.23
2023-04-22T08:28:26.030Z,6.40
2023-04-22T08:30:55.716Z,5.17
2023-04-22T08:33:23.539Z,4.93
2023-04-22T08:35:52.742Z,5.50
2023-04-22T08:38:20.109Z,5.60
2023-04-22T08:41:08.833Z,5.07
2023-04-22T08:43:36.944Z,5.67
2023-04-22T08:46:06.860Z,5.17
2023-04-22T08:48:34.128Z,4.80
2023-04-22T08:51:01.701Z,5.23
2023-04-22T08:53:28.957Z,5.17
2023-04-22T08:55:57.726Z,4.50
2023-04-22T08:58:25.557Z,4.73
2023-04-22T09:00:55.856Z,5.03
2023-04-22T09:03:23.678Z,4.27
2023-04-22T09:05:53.607Z,6.43
2023-04-22T09:08:22.167Z,4.77
2023-04-22T09:10:49.642Z,4.47
2023-04-22T09:13:18.211Z,4.83
2023-04-22T09:15:46.390Z,3.80
2023-04-22T09:18:19.351Z,4.10
2023-04-22T09:20:56.238Z,4.80
2023-04-22T09:23:23.551Z,4.00
2023-04-22T09:25:50.838Z,4.97
2023-04-22T09:28:19.690Z,4.20
2023-04-22T09:30:47.720Z,3.43
2023-04-22T09:33:15.809Z,3.87
2023-04-22T09:35:44.589Z,3.70
2023-04-22T09:38:13.372Z,3.83
2023-04-22T09:40:45.279Z,3.83
2023-04-22T09:43:13.046Z,3.90
2023-04-22T09:45:43.269Z,3.60
2023-04-22T09:48:19.516Z,3.90
2023-04-22T09:50:50.811Z,3.33
2023-04-22T09:53:21.483Z,3.87
2023-04-22T09:55:52.976Z,3.63
2023-04-22T09:58:27.973Z,3.80
2023-04-22T10:00:59.179Z,6.37
2023-04-22T10:03:26.428Z,3.73
2023-04-22T10:05:53.759Z,4.60
2023-04-22T10:08:20.932Z,3.70
2023-04-22T10:10:48.471Z,3.83
2023-04-22T10:13:15.984Z,3.77
2023-04-22T10:15:57.460Z,3.93
2023-04-22T10:18:30.074Z,3.83
2023-04-22T10:20:59.451Z,3.30
2023-04-22T10:23:49.220Z,5.43
2023-04-22T10:26:56.920Z,4.47
2023-04-22T10:29:26.913Z,3.40
2023-04-22T10:31:59.346Z,5.00
2023-04-22T10:34:26.781Z,3.70
2023-04-22T10:37:14.664Z,3.30
2023-04-22T10:39:43.483Z,3.73
2023-04-22T10:42:17.325Z,3.17
2023-04-22T10:45:01.812Z,3.30
2023-04-22T10:47:37.006Z,3.40
2023-04-22T10:50:26.623Z,3.20
2023-04-22T10:52:59.904Z,2.90
2023-04-22T10:55:51.375Z,3.30
2023-04-22T10:58:24.979Z,3.30
2023-04-22T11:01:03.297Z,3.77
2023-04-22T11:03:31.605Z,3.43
2023-04-22T11:06:16.405Z,3.43
2023-04-22T11:09:07.402Z,3.23
2023-04-22T11:11:34.702Z,4.23
2023-04-22T11:14:03.337Z,3.20
2023-04-22T11:16:34.477Z,3.50
2023-04-22T11:19:02.969Z,3.63
2023-04-22T11:21:32.729Z,3.47
2023-04-22T11:24:03.235Z,3.57
2023-04-22T11:26:36.200Z,4.37
2023-04-22T11:29:04.065Z,3.70
2023-04-22T11:31:31.699Z,3.07
2023-04-22T11:34:02.364Z,3.43
2023-04-22T11:36:29.798Z,3.30
2023-04-22T11:38:57.441Z,3.40
2023-04-22T11:41:24.832Z,4.27
2023-04-22T11:43:52.684Z,4.00
2023-04-22T11:46:31.557Z,3.43
2023-04-22T11:49:16.013Z,3.87
2023-04-22T11:51:55.784Z,3.57
2023-04-22T11:54:42.269Z,3.47
2023-04-22T11:57:12.014Z,3.33
2023-04-22T11:59:39.412Z,4.00
2023-04-22T12:02:08.346Z,4.67
2023-04-22T12:04:40.184Z,4.33
2023-04-22T12:07:08.392Z,4.00
2023-04-22T12:09:35.506Z,3.97
2023-04-22T12:12:08.588Z,2.93
2023-04-22T12:14:36.631Z,3.37
2023-04-22T12:17:08.800Z,3.97
2023-04-22T12:19:36.376Z,3.57
2023-04-22T12:22:07.022Z,4.37
2023-04-22T12:24:34.510Z,3.70
2023-04-22T12:27:02.050Z,5.57
2023-04-22T12:29:34.197Z,3.50
2023-04-22T12:32:01.946Z,3.07
2023-04-22T12:34:29.268Z,4.57
2023-04-22T12:36:56.980Z,3.83
2023-04-22T12:39:24.308Z,3.20
2023-04-22T12:41:51.706Z,3.23
2023-04-22T12:44:18.987Z,3.80
2023-04-22T12:46:46.837Z,4.60
2023-04-22T12:49:54.350Z,3.80
2023-04-22T12:52:22.052Z,3.43
2023-04-22T12:54:49.649Z,4.20
2023-04-22T12:57:16.957Z,4.10
2023-04-22T12:59:45.606Z,5.00
2023-04-22T13:02:13.434Z,6.67
2023-04-22T13:04:41.117Z,4.17
2023-04-22T13:07:08.439Z,3.77
2023-04-22T13:09:35.728Z,3.50
2023-04-22T13:12:03.468Z,4.27
2023-04-22T13:14:31.047Z,4.83
2023-04-22T13:16:58.403Z,4.73
2023-04-22T13:19:27.202Z,4.67
2023-04-22T13:21:54.611Z,5.10
2023-04-22T13:24:22.223Z,6.27
2023-04-22T13:26:49.667Z,3.87
2023-04-22T13:29:17.036Z,3.93
2023-04-22T13:31:44.899Z,4.30
2023-04-22T13:34:12.825Z,4.00
2023-04-22T13:36:40.188Z,5.73
2023-04-22T13:39:09.111Z,4.00
2023-04-22T13:41:36.753Z,7.50
2023-04-22T13:44:04.915Z,4.07
2023-04-22T13:46:32.201Z,3.57
2023-04-22T13:48:59.582Z,3.63
2023-04-22T13:51:26.859Z,4.07
2023-04-22T13:53:54.111Z,3.33
2023-04-22T13:56:21.397Z,4.20
2023-04-22T13:58:49.103Z,4.07
2023-04-22T14:01:16.315Z,3.97
2023-04-22T14:03:45.170Z,3.80
2023-04-22T14:06:12.830Z,3.70
2023-04-22T14:08:40.510Z,4.50
2023-04-22T14:11:09.595Z,4.37
2023-04-22T14:13:40.217Z,3.77
2023-04-22T14:16:09.938Z,3.17
2023-04-22T14:18:39.560Z,2.67
2023-04-22T14:21:11.805Z,3.50
2023-04-22T14:23:41.235Z,2.20
2023-04-22T14:26:11.756Z,2.30
2023-04-22T14:28:42.697Z,1.83
2023-04-22T14:31:10.654Z,2.37
2023-04-22T14:33:39.179Z,1.50
2023-04-22T14:36:06.543Z,2.37
2023-04-22T14:38:33.935Z,2.30
2023-04-22T14:41:01.290Z,2.70
2023-04-22T14:43:28.641Z,2.40
2023-04-22T14:45:56.081Z,3.80
2023-04-22T14:48:25.452Z,2.40
2023-04-22T14:50:52.721Z,2.47
2023-04-22T14:53:20.513Z,2.07
2023-04-22T14:55:47.998Z,3.03
2023-04-22T14:58:15.373Z,2.37
2023-04-22T15:00:42.654Z,2.47
2023-04-22T15:03:10.349Z,1.90
2023-04-22T15:05:37.703Z,2.00
2023-04-22T15:08:04.953Z,2.30
2023-04-22T15:10:32.407Z,2.33
2023-04-22T15:13:00.461Z,2.13
2023-04-22T15:15:27.710Z,2.30
2023-04-22T15:17:55.358Z,2.07
2023-04-22T15:20:23.189Z,2.30
2023-04-22T15:22:50.546Z,1.70
2023-04-22T15:25:18.434Z,3.90
2023-04-22T15:27:46.350Z,1.80
2023-04-22T15:30:13.781Z,2.20
2023-04-22T15:32:40.917Z,2.33
2023-04-22T15:35:08.963Z,2.30
2023-04-22T15:37:36.544Z,2.13
2023-04-22T15:40:06.855Z,2.50
2023-04-22T15:42:34.179Z,2.00
2023-04-22T15:45:01.915Z,2.70
2023-04-22T15:47:30.845Z,2.77
2023-04-22T15:50:06.411Z,2.43
2023-04-22T15:52:35.549Z,2.40
2023-04-22T15:55:02.678Z,2.23
2023-04-22T15:57:35.381Z,1.90
2023-04-22T16:00:12.726Z,2.27
2023-04-22T16:02:42.383Z,2.37
2023-04-22T16:05:11.756Z,3.13
2023-04-22T16:07:40.370Z,1.80
2023-04-22T16:10:09.234Z,2.20
2023-04-22T16:12:36.444Z,2.40
2023-04-22T16:15:03.835Z,2.40
2023-04-22T16:17:31.271Z,2.93
2023-04-22T16:19:58.767Z,2.23
2023-04-22T16:22:25.956Z,2.47
2023-04-22T16:24:53.290Z,2.30
2023-04-22T16:27:20.716Z,2.33
2023-04-22T16:29:51.723Z,2.40
2023-04-22T16:32:19.514Z,1.90
2023-04-22T16:34:46.938Z,2.23
2023-04-22T16:37:14.087Z,2.00
2023-04-22T16:39:41.776Z,1.87
2023-04-22T16:42:09.464Z,2.17
2023-04-22T16:44:36.727Z,1.80
2023-04-22T16:47:04.008Z,1.73
2023-04-22T16:49:31.362Z,2.20
2023-04-22T16:51:58.778Z,1.90
2023-04-22T16:54:26.355Z,2.57
2023-04-22T16:56:53.798Z,2.10
2023-04-22T16:59:21.142Z,2.00
2023-04-22T17:03:13.590Z,2.10
2023-04-22T17:05:40.804Z,2.07
2023-04-22T17:08:08.471Z,2.30
2023-04-22T17:10:39.587Z,2.20
2023-04-22T17:13:09.089Z,2.20
2023-04-22T17:15:36.503Z,2.03
2023-04-22T17:18:05.982Z,2.00
2023-04-22T17:20:33.395Z,2.43
2023-04-22T17:23:00.864Z,2.00
2023-04-22T17:25:28.772Z,2.30
2023-04-22T17:27:56.389Z,2.40
2023-04-22T17:30:24.089Z,2.30
2023-04-22T17:32:51.460Z,2.20
2023-04-22T17:35:21.607Z,3.63
2023-04-22T17:37:49.082Z,3.20
2023-04-22T17:40:16.692Z,2.83
2023-04-22T17:42:46.270Z,2.67
2023-04-22T17:45:14.142Z,2.60
2023-04-22T17:47:41.533Z,3.10
2023-04-22T17:50:12.004Z,2.90
2023-04-22T17:52:39.777Z,2.43
2023-04-22T17:55:08.217Z,2.60
2023-04-22T17:57:35.659Z,2.93
2023-04-22T18:00:03.831Z,2.47
2023-04-22T18:02:31.728Z,2.47
2023-04-22T18:04:59.357Z,2.57
2023-04-22T18:07:29.363Z,3.00
2023-04-22T18:09:56.976Z,3.33
2023-04-22T18:12:29.203Z,5.00
2023-04-22T18:14:58.588Z,5.10
2023-04-22T18:17:26.253Z,5.90
2023-04-22T18:20:02.816Z,6.20
2023-04-22T18:22:33.862Z,6.30
2023-04-22T18:25:02.281Z,6.93
2023-04-22T18:27:29.632Z,7.37
2023-04-22T18:29:56.870Z,7.53
2023-04-22T18:32:26.432Z,8.37
2023-04-22T18:34:53.968Z,8.70
2023-04-22T18:37:22.115Z,8.23
2023-04-22T18:39:49.353Z,14.90
2023-04-22T18:42:16.789Z,34.60
2023-04-22T18:44:44.234Z,15.20
2023-04-22T18:47:11.588Z,16.40
2023-04-22T18:49:38.838Z,12.03
2023-04-22T18:52:06.171Z,11.63
2023-04-22T18:54:33.476Z,10.77
2023-04-22T18:57:03.688Z,11.17
2023-04-22T18:59:31.810Z,11.90
2023-04-22T19:02:01.196Z,12.03
2023-04-22T19:04:28.996Z,12.03
2023-04-22T19:06:57.275Z,14.80
2023-04-22T19:09:24.875Z,15.43
2023-04-22T19:11:52.617Z,16.27
2023-04-22T19:14:20.321Z,33.07
2023-04-22T19:16:50.709Z,25.83
2023-04-22T19:19:18.064Z,38.17
2023-04-22T19:21:45.451Z,20.17
2023-04-22T19:24:14.389Z,20.60
2023-04-22T19:26:41.733Z,26.77
2023-04-22T19:29:09.117Z,35.20
2023-04-22T19:31:36.410Z,24.03
2023-04-22T19:34:04.046Z,21.20
2023-04-22T19:36:32.291Z,19.23
2023-04-22T19:38:59.534Z,19.67
2023-04-22T19:41:26.761Z,19.90
2023-04-22T19:43:56.359Z,18.63
2023-04-22T19:46:23.521Z,19.93
2023-04-22T19:48:51.614Z,18.80
2023-04-22T19:51:19.481Z,19.47
2023-04-22T19:53:47.470Z,19.03
2023-04-22T19:56:15.838Z,21.63
2023-04-22T19:58:43.959Z,21.57
2023-04-22T20:01:12.474Z,22.27
2023-04-22T20:03:40.444Z,21.87
2023-04-22T20:06:08.737Z,21.03
2023-04-22T20:08:42.032Z,19.87
2023-04-22T20:11:12.941Z,21.83
2023-04-22T20:13:42.506Z,21.87
2023-04-22T20:16:10.722Z,24.80
2023-04-22T20:18:38.321Z,24.40
2023-04-22T20:21:06.695Z,26.00
2023-04-22T20:23:34.529Z,26.00
2023-04-22T20:26:02.998Z,26.23
2023-04-22T20:28:52.499Z,24.63
2023-04-22T20:31:22.870Z,24.73
2023-04-22T20:33:51.469Z,27.53
2023-04-22T20:36:20.615Z,27.30
2023-04-22T20:38:51.154Z,26.50
2023-04-22T20:41:20.303Z,27.60
2023-04-22T20:43:47.899Z,29.33
2023-04-22T20:46:15.664Z,28.27
2023-04-22T20:48:50.480Z,28.37
2023-04-22T20:51:20.592Z,26.87
2023-04-22T20:53:48.172Z,33.37
2023-04-22T20:56:17.838Z,28.97
2023-04-22T20:58:45.303Z,29.80
2023-04-22T21:01:16.357Z,32.87
2023-04-22T21:04:03.662Z,32.23
2023-04-22T21:06:34.381Z,31.07
2023-04-22T21:09:03.512Z,27.47
2023-04-22T21:11:31.322Z,33.17
2023-04-22T21:13:59.780Z,35.73
2023-04-22T21:16:30.633Z,35.93
2023-04-22T21:19:01.466Z,35.30
2023-04-22T21:21:35.720Z,32.03
2023-04-22T21:24:07.296Z,33.33
2023-04-22T21:26:37.549Z,35.80
2023-04-22T21:29:05.313Z,37.77
2023-04-22T21:31:34.260Z,35.90
2023-04-22T21:34:04.758Z,40.90
2023-04-22T21:36:32.874Z,35.90
2023-04-22T21:39:04.896Z,39.93
2023-04-22T21:41:33.652Z,41.23
2023-04-22T21:44:01.087Z,36.17
2023-04-22T21:46:28.472Z,38.20
2023-04-22T21:48:56.307Z,38.07
2023-04-22T21:51:23.965Z,43.83
2023-04-22T21:53:51.620Z,40.47
2023-04-22T21:56:19.624Z,40.30
2023-04-22T21:58:46.951Z,38.33
2023-04-22T22:01:14.574Z,44.67
2023-04-22T22:03:46.580Z,41.63
2023-04-22T22:06:14.257Z,36.70
2023-04-22T22:08:41.770Z,40.53
2023-04-22T22:11:14.523Z,40.23
2023-04-22T22:13:49.441Z,40.73
2023-04-22T22:16:17.847Z,36.00
2023-04-22T22:18:46.086Z,33.97
2023-04-22T22:21:13.362Z,38.33
2023-04-22T22:23:40.662Z,42.60
2023-04-22T22:26:08.493Z,35.00
2023-04-22T22:28:35.878Z,42.40
2023-04-22T22:31:03.213Z,44.43
2023-04-22T22:33:30.799Z,42.43
2023-04-22T22:35:58.169Z,42.83
2023-04-22T22:38:25.762Z,41.30
2023-04-22T22:40:53.166Z,39.67
2023-04-22T22:43:20.617Z,45.50
2023-04-22T22:45:48.278Z,44.20
2023-04-22T22:48:17.841Z,42.97
2023-04-22T22:50:46.652Z,44.47
2023-04-22T22:53:13.982Z,45.47
2023-04-22T22:55:41.180Z,43.90
2023-04-22T22:58:08.437Z,46.97
2023-04-22T23:00:36.388Z,51.00
2023-04-22T23:03:04.634Z,47.10
2023-04-22T23:05:32.157Z,48.20
2023-04-22T23:07:59.679Z,43.63
2023-04-22T23:10:26.942Z,47.53
2023-04-22T23:12:54.670Z,46.73
2023-04-22T23:15:24.442Z,50.70
2023-04-22T23:17:52.077Z,48.73
2023-04-22T23:20:20.847Z,47.23
2023-04-22T23:22:51.534Z,52.03
2023-04-22T23:25:19.204Z,51.23
2023-04-22T23:27:47.367Z,52.07
2023-04-22T23:30:15.170Z,48.67
2023-04-22T23:32:45.628Z,46.20
2023-04-22T23:35:16.739Z,42.67
2023-04-22T23:37:45.881Z,45.00
2023-04-22T23:40:14.003Z,41.23
2023-04-22T23:42:41.624Z,39.63
2023-04-22T23:45:09.998Z,45.87
2023-04-22T23:47:37.669Z,42.07
2023-04-22T23:50:06.297Z,38.60
2023-04-22T23:52:37.621Z,40.90
2023-04-22T23:55:05.810Z,38.57
2023-04-22T23:57:33.572Z,35.60
